Time;durP1;ratioP1;P1;durP2;ratioP2;P2;SDS_P1;SDS_P2;PMS_P1;PMS_P2;Temp;Humidity;BMP_temperature;BMP_pressure;BME280_temperature;BME280_humidity;BME280_pressure;Samples;Min_cycle;Max_cycle;Signal;HPM_P1;HPM_P2
2024/01/01 00:01:04;;;;;;;11.70;8.30;;;9.30;64.20;;;;;;4979787;28;20097;-59
2024/01/01 00:03:32;;;;;;;19.17;8.93;;;9.30;64.30;;;;;;4977214;28;20115;-57
2024/01/01 00:06:02;;;;;;;19.55;6.15;;;9.20;64.20;;;;;;4975699;28;20062;-58
2024/01/01 00:08:31;;;;;;;7.20;4.65;;;9.20;64.20;;;;;;4976648;28;20066;-58
2024/01/01 00:11:00;;;;;;;11.68;5.60;;;9.10;64.30;;;;;;4974933;28;20066;-59
2024/01/01 00:13:28;;;;;;;7.32;6.07;;;9.10;64.30;;;;;;4980196;28;20129;-60
2024/01/01 00:15:56;;;;;;;12.35;5.85;;;9.10;64.30;;;;;;4982188;28;20050;-60
2024/01/01 00:18:25;;;;;;;9.57;4.05;;;9.10;64.40;;;;;;4975088;28;20440;-58
2024/01/01 00:20:53;;;;;;;49.17;17.48;;;9.10;64.30;;;;;;4979096;28;20062;-58
2024/01/01 00:23:20;;;;;;;59.40;20.30;;;9.10;64.40;;;;;;4976984;28;20054;-58
2024/01/01 00:25:50;;;;;;;44.50;16.77;;;9.10;64.40;;;;;;4977619;28;20128;-58
2024/01/01 00:28:18;;;;;;;44.25;15.30;;;9.00;64.40;;;;;;4974589;28;20181;-59
2024/01/01 00:30:46;;;;;;;36.53;13.93;;;9.00;65.10;;;;;;4979346;28;20058;-58
2024/01/01 00:33:15;;;;;;;37.35;16.17;;;9.00;64.40;;;;;;4974305;28;20860;-58
2024/01/01 00:35:44;;;;;;;35.58;11.48;;;9.00;64.40;;;;;;4975637;28;20145;-58
2024/01/01 00:38:12;;;;;;;28.17;9.95;;;9.00;64.50;;;;;;4998509;28;20054;-60
2024/01/01 00:40:41;;;;;;;23.13;8.02;;;9.10;64.70;;;;;;4972000;28;20517;-61
2024/01/01 00:43:12;;;;;;;27.65;10.38;;;9.10;64.90;;;;;;4976449;28;20169;-59
2024/01/01 00:45:40;;;;;;;28.90;9.45;;;9.00;64.70;;;;;;4976019;28;20112;-60
2024/01/01 00:48:17;;;;;;;31.75;9.35;;;9.00;64.80;;;;;;4974572;28;20046;-59
2024/01/01 00:50:46;;;;;;;39.75;13.63;;;9.00;64.80;;;;;;4976030;28;20081;-59
2024/01/01 00:53:14;;;;;;;36.95;9.75;;;9.00;65.00;;;;;;4974124;28;20133;-59
2024/01/01 00:55:42;;;;;;;23.85;8.88;;;9.00;64.90;;;;;;4976093;28;20501;-59
2024/01/01 00:58:12;;;;;;;24.00;10.48;;;9.00;64.80;;;;;;4980450;28;20932;-59
2024/01/01 01:00:40;;;;;;;36.03;12.35;;;9.00;64.80;;;;;;4972858;28;20069;-58
2024/01/01 01:03:09;;;;;;;30.77;11.93;;;9.00;64.70;;;;;;4990453;28;20049;-57
2024/01/01 01:05:37;;;;;;;56.83;17.45;;;9.10;64.70;;;;;;4983269;28;20050;-59
2024/01/01 01:08:07;;;;;;;26.27;11.48;;;9.10;64.60;;;;;;4965126;28;20050;-58
2024/01/01 01:10:36;;;;;;;30.30;9.68;;;9.20;64.50;;;;;;4973894;28;20054;-60
2024/01/01 01:13:04;;;;;;;30.70;9.80;;;9.20;65.30;;;;;;4986811;28;20061;-58
2024/01/01 01:15:35;;;;;;;37.60;11.00;;;9.10;64.40;;;;;;4978219;28;20133;-59
2024/01/01 01:18:03;;;;;;;35.10;11.10;;;9.10;64.50;;;;;;4959160;28;21649;-59
2024/01/01 01:20:32;;;;;;;35.50;11.00;;;9.20;64.40;;;;;;4980591;28;20062;-59
2024/01/01 01:23:00;;;;;;;27.30;9.50;;;9.20;64.30;;;;;;4979398;28;20098;-58
2024/01/01 01:25:29;;;;;;;20.77;9.63;;;9.20;64.20;;;;;;4976959;28;20133;-59
2024/01/01 01:27:57;;;;;;;24.45;8.07;;;9.20;64.20;;;;;;4974083;28;20051;-58
2024/01/01 01:30:25;;;;;;;25.27;7.10;;;9.20;64.10;;;;;;4982248;28;20133;-57
2024/01/01 01:32:55;;;;;;;18.58;5.97;;;9.20;64.10;;;;;;4976817;28;20732;-58
2024/01/01 01:35:24;;;;;;;27.58;8.82;;;9.30;64.20;;;;;;4984404;28;20069;-59
2024/01/01 01:37:53;;;;;;;24.42;9.13;;;9.30;64.10;;;;;;4982103;28;20058;-55
2024/01/01 01:40:22;;;;;;;15.05;6.38;;;9.30;64.00;;;;;;4976129;28;20074;-58
2024/01/01 01:42:50;;;;;;;19.38;6.68;;;9.40;64.00;;;;;;4978700;28;20065;-58
2024/01/01 01:45:19;;;;;;;20.65;8.23;;;9.30;63.90;;;;;;4979870;28;20058;-57
2024/01/01 01:47:47;;;;;;;22.42;8.05;;;9.30;63.80;;;;;;4980283;28;20046;-58
2024/01/01 01:50:18;;;;;;;15.77;6.32;;;9.30;63.90;;;;;;4955191;28;20062;-58
2024/01/01 01:52:48;;;;;;;23.13;7.80;;;9.30;63.90;;;;;;5010244;28;20112;-58
2024/01/01 01:55:22;;;;;;;24.95;8.80;;;9.30;63.90;;;;;;4978819;28;20140;-58
2024/01/01 01:57:51;;;;;;;21.95;7.72;;;9.30;63.80;;;;;;4975589;28;20077;-56
2024/01/01 02:00:20;;;;;;;24.95;7.05;;;9.30;63.70;;;;;;4977249;28;20466;-59
2024/01/01 02:02:50;;;;;;;15.82;7.10;;;9.30;63.70;;;;;;4977448;28;20054;-59
2024/01/01 02:05:20;;;;;;;22.65;7.75;;;9.30;63.70;;;;;;4979901;28;20062;-58
2024/01/01 02:07:49;;;;;;;15.25;5.45;;;9.30;63.60;;;;;;4977723;28;20058;-55
2024/01/01 02:10:19;;;;;;;21.25;6.13;;;9.20;63.60;;;;;;4976640;28;21298;-58
2024/01/01 02:12:47;;;;;;;17.77;6.43;;;9.20;63.60;;;;;;4977318;28;20140;-58
2024/01/01 02:15:15;;;;;;;17.95;5.75;;;9.20;63.60;;;;;;4981254;28;20058;-57
2024/01/01 02:17:43;;;;;;;15.88;5.72;;;9.20;63.70;;;;;;4975057;28;20042;-58
2024/01/01 02:20:12;;;;;;;22.92;7.32;;;9.10;63.80;;;;;;4977363;28;20322;-58
2024/01/01 02:22:48;;;;;;;23.25;5.63;;;9.20;63.80;;;;;;4975101;28;20047;-58
2024/01/01 02:25:17;;;;;;;11.68;4.70;;;9.10;63.70;;;;;;4977930;28;20207;-58
2024/01/01 02:27:45;;;;;;;17.58;6.32;;;9.10;63.80;;;;;;4982006;28;20081;-59
2024/01/01 02:30:14;;;;;;;14.77;6.97;;;9.10;64.60;;;;;;4976647;28;20097;-58
2024/01/01 02:32:42;;;;;;;15.02;5.97;;;9.10;63.90;;;;;;4976847;28;22118;-57
2024/01/01 02:35:10;;;;;;;17.27;6.90;;;9.20;63.90;;;;;;4979521;28;20213;-56
2024/01/01 02:37:39;;;;;;;11.23;4.68;;;9.20;63.90;;;;;;4974357;28;20062;-57
2024/01/01 02:40:08;;;;;;;11.13;4.93;;;9.30;63.90;;;;;;4974967;28;20849;-59
2024/01/01 02:42:38;;;;;;;18.52;5.40;;;9.30;63.90;;;;;;4979843;28;20053;-58
2024/01/01 02:45:08;;;;;;;16.67;5.35;;;9.30;63.80;;;;;;4976849;28;20054;-57
2024/01/01 02:47:37;;;;;;;16.33;6.10;;;9.30;63.80;;;;;;4986470;28;20054;-57
2024/01/01 02:50:07;;;;;;;12.70;5.30;;;9.30;63.80;;;;;;4974035;28;20061;-58
2024/01/01 02:52:35;;;;;;;11.93;5.32;;;9.30;63.80;;;;;;4979807;28;20057;-57
2024/01/01 02:55:04;;;;;;;15.80;5.72;;;9.30;63.80;;;;;;4978440;28;20062;-55
2024/01/01 02:57:32;;;;;;;16.58;6.32;;;9.40;63.80;;;;;;4992563;28;20104;-58
2024/01/01 03:00:02;;;;;;;17.02;5.55;;;9.40;63.70;;;;;;4971772;28;20516;-56
2024/01/01 03:02:31;;;;;;;10.57;4.25;;;9.30;63.60;;;;;;4984627;28;20495;-57
2024/01/01 03:04:59;;;;;;;15.75;4.72;;;9.30;63.70;;;;;;4985617;28;20058;-58
2024/01/01 03:07:28;;;;;;;11.82;4.18;;;9.30;63.70;;;;;;4981962;28;20080;-58
2024/01/01 03:09:56;;;;;;;6.20;3.50;;;9.20;63.80;;;;;;4975879;28;20552;-57
2024/01/01 03:12:25;;;;;;;5.60;2.63;;;9.20;63.80;;;;;;4978863;28;20132;-58
2024/01/01 03:14:53;;;;;;;10.73;3.72;;;9.30;64.00;;;;;;4982465;28;20596;-57
2024/01/01 03:17:22;;;;;;;11.63;3.30;;;9.30;64.00;;;;;;4974840;28;20058;-58
2024/01/01 03:19:51;;;;;;;13.60;4.15;;;9.30;64.00;;;;;;4973608;28;20082;-56
2024/01/01 03:22:20;;;;;;;13.95;3.60;;;9.30;64.10;;;;;;4975715;28;20058;-58
2024/01/01 03:24:48;;;;;;;4.63;2.17;;;9.30;64.00;;;;;;4975889;28;20054;-58
2024/01/01 03:27:17;;;;;;;7.78;3.88;;;9.30;64.00;;;;;;4979450;28;20058;-56
2024/01/01 03:29:45;;;;;;;6.35;3.03;;;9.30;64.00;;;;;;4989741;28;20626;-57
2024/01/01 03:32:14;;;;;;;6.10;3.30;;;9.40;64.10;;;;;;4971702;28;20144;-57
2024/01/01 03:34:44;;;;;;;7.15;3.17;;;9.40;64.00;;;;;;4980484;28;20149;-58
2024/01/01 03:37:12;;;;;;;8.15;2.72;;;9.40;64.00;;;;;;4978419;28;20054;-56
2024/01/01 03:39:40;;;;;;;12.43;2.95;;;9.50;64.00;;;;;;4979592;28;20046;-57
2024/01/01 03:42:09;;;;;;;6.65;2.78;;;9.60;63.80;;;;;;4971259;28;20632;-57
2024/01/01 03:44:37;;;;;;;10.23;3.28;;;9.60;63.80;;;;;;4970302;28;20052;-58
2024/01/01 03:47:05;;;;;;;6.70;3.35;;;9.60;64.20;;;;;;4990651;28;20062;-57
2024/01/01 03:49:33;;;;;;;8.23;3.22;;;9.70;63.70;;;;;;4979599;28;20046;-57
2024/01/01 03:52:03;;;;;;;14.80;3.67;;;9.70;63.70;;;;;;4970731;28;20070;-57
2024/01/01 03:54:32;;;;;;;10.05;4.28;;;9.70;63.70;;;;;;4978065;28;20150;-57
2024/01/01 03:57:00;;;;;;;11.80;4.25;;;9.80;63.60;;;;;;4976105;28;20054;-58
2024/01/01 03:59:28;;;;;;;10.75;3.58;;;9.80;63.60;;;;;;4982987;28;20132;-58
2024/01/01 04:01:56;;;;;;;9.20;3.80;;;9.80;63.50;;;;;;4979723;28;20523;-57
2024/01/01 04:04:25;;;;;;;7.82;4.00;;;9.80;63.40;;;;;;4995682;28;20050;-57
2024/01/01 04:06:53;;;;;;;7.45;3.53;;;9.80;63.40;;;;;;4990594;28;20481;-57
2024/01/01 04:09:23;;;;;;;7.40;3.55;;;9.80;63.50;;;;;;4980015;28;20046;-58
2024/01/01 04:11:51;;;;;;;8.82;3.53;;;9.80;63.50;;;;;;4971606;28;20124;-57
2024/01/01 04:14:19;;;;;;;13.27;3.70;;;9.70;63.40;;;;;;4974030;28;20164;-58
2024/01/01 04:16:48;;;;;;;7.88;3.22;;;9.70;64.20;;;;;;4982441;28;20050;-58
2024/01/01 04:19:16;;;;;;;7.03;3.70;;;9.70;63.50;;;;;;4979080;28;20133;-57
2024/01/01 04:21:44;;;;;;;10.77;3.72;;;9.70;63.40;;;;;;4984044;28;20058;-57
2024/01/01 04:24:12;;;;;;;7.07;3.35;;;9.60;63.40;;;;;;4971059;28;21587;-55
2024/01/01 04:26:42;;;;;;;11.65;3.55;;;9.60;63.40;;;;;;4978620;28;20082;-58
2024/01/01 04:29:12;;;;;;;6.95;3.33;;;9.60;63.30;;;;;;4969353;28;20113;-57
2024/01/01 04:31:40;;;;;;;9.75;3.35;;;9.50;63.30;;;;;;4985773;28;20591;-56
2024/01/01 04:34:08;;;;;;;11.80;3.40;;;9.40;63.30;;;;;;4968815;28;20555;-58
2024/01/01 04:36:37;;;;;;;7.57;3.22;;;9.30;63.30;;;;;;4980574;28;20066;-56
2024/01/01 04:39:05;;;;;;;8.70;3.88;;;9.20;63.30;;;;;;4976349;28;20073;-58
2024/01/01 04:41:34;;;;;;;7.13;3.63;;;9.10;63.40;;;;;;4982695;28;20060;-57
2024/01/01 04:44:04;;;;;;;8.93;3.38;;;9.00;63.50;;;;;;4975330;28;20390;-57
2024/01/01 04:46:32;;;;;;;11.38;4.68;;;8.90;63.60;;;;;;4976784;28;20157;-55
2024/01/01 04:49:00;;;;;;;10.25;3.67;;;8.80;63.60;;;;;;4977254;28;20448;-55
2024/01/01 04:51:28;;;;;;;8.70;3.72;;;8.70;63.60;;;;;;4984451;28;20056;-56
2024/01/01 04:53:57;;;;;;;9.15;4.05;;;8.70;64.60;;;;;;4971668;28;20058;-57
2024/01/01 04:56:25;;;;;;;14.70;4.63;;;8.60;63.80;;;;;;4978663;28;20401;-57
2024/01/01 04:58:54;;;;;;;9.75;3.85;;;8.60;63.90;;;;;;4976685;28;20061;-56
2024/01/01 05:01:26;;;;;;;12.90;3.97;;;8.50;63.90;;;;;;4979507;28;20078;-58
2024/01/01 05:03:54;;;;;;;9.85;3.90;;;8.50;64.00;;;;;;4978932;28;20049;-57
2024/01/01 05:06:22;;;;;;;10.30;5.05;;;8.60;64.20;;;;;;4977373;28;20388;-58
2024/01/01 05:08:50;;;;;;;12.68;4.72;;;8.60;64.20;;;;;;4982281;28;20092;-58
2024/01/01 05:11:19;;;;;;;12.80;4.70;;;8.70;64.10;;;;;;4978602;28;20059;-58
2024/01/01 05:13:47;;;;;;;6.32;3.47;;;8.70;64.00;;;;;;4978397;28;20100;-56
2024/01/01 05:16:16;;;;;;;12.93;4.20;;;8.80;64.00;;;;;;4976018;28;20066;-58
2024/01/01 05:18:45;;;;;;;9.90;4.13;;;8.80;63.90;;;;;;4976917;28;20448;-56
2024/01/01 05:21:13;;;;;;;7.85;3.72;;;8.80;64.00;;;;;;4992789;28;20684;-56
2024/01/01 05:23:42;;;;;;;19.67;4.30;;;8.90;64.70;;;;;;4976391;28;20108;-56
2024/01/01 05:26:10;;;;;;;9.75;3.83;;;8.90;64.00;;;;;;4972515;28;20527;-55
2024/01/01 05:28:38;;;;;;;12.75;4.50;;;9.00;63.90;;;;;;4981295;28;20516;-57
2024/01/01 05:31:06;;;;;;;15.60;3.60;;;9.00;63.80;;;;;;4977022;28;20743;-57
2024/01/01 05:33:36;;;;;;;19.35;4.80;;;9.10;63.70;;;;;;4982095;28;20490;-55
2024/01/01 05:36:13;;;;;;;13.45;4.38;;;9.10;63.60;;;;;;4967304;28;20097;-56
2024/01/01 05:38:41;;;;;;;9.98;4.22;;;9.10;64.40;;;;;;4974293;28;20917;-56
2024/01/01 05:41:11;;;;;;;11.80;4.55;;;9.10;63.50;;;;;;4976387;28;20051;-57
2024/01/01 05:43:39;;;;;;;11.40;4.82;;;9.10;63.50;;;;;;4974974;28;20374;-57
2024/01/01 05:46:07;;;;;;;13.15;3.88;;;9.10;63.40;;;;;;4967316;28;20137;-56
2024/01/01 05:48:36;;;;;;;11.43;3.97;;;9.10;63.40;;;;;;4976342;28;20076;-56
2024/01/01 05:51:10;;;;;;;12.60;4.03;;;9.10;63.30;;;;;;4975219;28;20604;-56
2024/01/01 05:53:38;;;;;;;14.52;4.13;;;9.10;63.30;;;;;;4977696;28;20116;-56
2024/01/01 05:56:07;;;;;;;8.02;4.13;;;9.10;63.30;;;;;;4975056;28;20102;-55
2024/01/01 05:58:36;;;;;;;11.27;4.35;;;9.10;63.30;;;;;;4973703;28;20065;-56
2024/01/01 06:01:04;;;;;;;13.57;4.47;;;9.00;63.30;;;;;;4973835;28;20061;-57
2024/01/01 06:03:32;;;;;;;12.43;3.65;;;9.00;63.40;;;;;;4977567;28;20050;-57
2024/01/01 06:06:01;;;;;;;14.07;4.18;;;9.00;63.40;;;;;;4976499;28;20070;-56
2024/01/01 06:08:30;;;;;;;18.52;3.90;;;9.10;64.30;;;;;;4979230;28;20104;-56
2024/01/01 06:10:59;;;;;;;9.52;4.47;;;9.10;63.40;;;;;;4985693;28;20066;-56
2024/01/01 06:13:27;;;;;;;10.07;3.50;;;9.20;63.40;;;;;;4979862;28;20062;-56
2024/01/01 06:15:55;;;;;;;11.98;4.50;;;9.20;64.10;;;;;;4971404;28;20054;-56
2024/01/01 06:18:25;;;;;;;11.20;4.65;;;9.20;63.20;;;;;;4984785;28;20081;-56
2024/01/01 06:20:53;;;;;;;14.05;4.53;;;9.30;63.20;;;;;;4977748;28;20404;-57
2024/01/01 06:23:21;;;;;;;9.35;4.03;;;9.30;63.20;;;;;;4977770;28;20086;-55
2024/01/01 06:25:53;;;;;;;11.88;4.60;;;9.30;63.20;;;;;;4981880;28;20593;-56
2024/01/01 06:28:21;;;;;;;13.38;5.22;;;9.30;63.20;;;;;;4978630;28;20160;-56
2024/01/01 06:30:49;;;;;;;8.30;3.97;;;9.30;63.10;;;;;;4980144;28;20054;-56
2024/01/01 06:33:18;;;;;;;9.43;3.50;;;9.30;63.90;;;;;;4980966;28;20053;-56
2024/01/01 06:35:46;;;;;;;12.60;4.25;;;9.30;63.10;;;;;;4980929;28;20068;-57
2024/01/01 06:38:14;;;;;;;9.77;3.67;;;9.30;63.10;;;;;;4975494;28;20844;-55
2024/01/01 06:40:43;;;;;;;8.48;4.00;;;9.40;63.80;;;;;;4979691;28;20136;-54
2024/01/01 06:43:13;;;;;;;14.18;4.40;;;9.40;63.00;;;;;;4983845;28;20612;-57
2024/01/01 06:45:42;;;;;;;13.35;4.15;;;9.40;62.90;;;;;;4977393;28;20062;-57
2024/01/01 06:48:11;;;;;;;8.95;3.47;;;9.50;63.10;;;;;;4972158;28;20125;-57
2024/01/01 06:50:40;;;;;;;13.75;3.85;;;9.50;62.80;;;;;;4978354;28;20141;-56
2024/01/01 06:53:08;;;;;;;11.00;3.88;;;9.50;63.60;;;;;;4981445;28;20564;-56
2024/01/01 06:55:36;;;;;;;8.10;3.83;;;9.60;62.70;;;;;;4981141;28;20496;-56
2024/01/01 06:58:05;;;;;;;6.40;3.38;;;9.60;62.70;;;;;;4976363;28;21133;-56
2024/01/01 07:00:35;;;;;;;11.52;2.83;;;9.50;62.70;;;;;;4982880;28;20047;-58
2024/01/01 07:03:04;;;;;;;8.68;2.88;;;9.50;62.80;;;;;;4983572;28;20053;-58
2024/01/01 07:05:33;;;;;;;5.82;2.95;;;9.60;62.80;;;;;;4989803;28;20058;-58
2024/01/01 07:08:03;;;;;;;7.95;3.33;;;9.60;62.80;;;;;;4972966;28;20149;-57
2024/01/01 07:10:32;;;;;;;7.50;2.42;;;9.70;62.80;;;;;;4973710;28;20070;-56
2024/01/01 07:13:00;;;;;;;7.38;3.10;;;9.70;62.80;;;;;;4979615;28;20089;-56
2024/01/01 07:15:29;;;;;;;4.05;2.35;;;9.70;62.80;;;;;;4978731;28;20509;-57
2024/01/01 07:17:59;;;;;;;3.80;1.90;;;9.80;62.80;;;;;;4971925;28;20105;-56
2024/01/01 07:20:29;;;;;;;9.77;2.67;;;9.90;62.70;;;;;;4976528;28;20039;-57
2024/01/01 07:22:57;;;;;;;8.85;2.80;;;9.90;63.30;;;;;;4978999;28;20061;-56
2024/01/01 07:25:25;;;;;;;6.85;2.90;;;9.90;62.60;;;;;;4979359;28;20061;-56
2024/01/01 07:27:54;;;;;;;11.25;2.75;;;10.00;62.60;;;;;;4977515;28;20054;-56
2024/01/01 07:30:23;;;;;;;10.27;3.97;;;10.00;62.50;;;;;;4982424;28;20093;-57
2024/01/01 07:32:51;;;;;;;8.98;3.45;;;10.10;62.50;;;;;;4982889;28;20157;-56
2024/01/01 07:35:20;;;;;;;6.55;2.78;;;10.10;62.30;;;;;;4978223;28;20059;-57
2024/01/01 07:37:49;;;;;;;11.48;4.20;;;10.10;62.20;;;;;;4982032;28;20424;-55
2024/01/01 07:40:18;;;;;;;10.55;4.03;;;10.10;62.00;;;;;;4974484;28;20053;-58
2024/01/01 07:42:46;;;;;;;7.50;3.38;;;10.20;62.10;;;;;;4979971;28;20050;-57
2024/01/01 07:45:15;;;;;;;10.45;3.45;;;10.20;62.00;;;;;;4976622;28;20113;-57
2024/01/01 07:47:43;;;;;;;10.77;4.32;;;10.10;62.80;;;;;;4978039;28;20152;-58
2024/01/01 07:50:12;;;;;;;7.70;3.72;;;10.20;62.10;;;;;;4969530;28;20108;-57
2024/01/01 07:52:41;;;;;;;10.73;4.03;;;10.20;62.10;;;;;;4978222;28;20054;-55
2024/01/01 07:55:11;;;;;;;8.43;3.40;;;10.20;62.00;;;;;;4978101;28;20065;-56
2024/01/01 07:57:39;;;;;;;23.55;5.97;;;10.20;62.10;;;;;;4975371;28;20064;-57
2024/01/01 08:00:10;;;;;;;11.35;3.78;;;10.20;62.10;;;;;;4972225;28;20084;-57
2024/01/01 08:02:38;;;;;;;8.63;3.90;;;10.30;62.00;;;;;;4977148;28;20066;-58
2024/01/01 08:05:07;;;;;;;8.52;3.58;;;10.40;62.10;;;;;;4982312;28;20748;-57
2024/01/01 08:07:35;;;;;;;11.43;5.03;;;10.50;62.20;;;;;;4975295;28;20063;-57
2024/01/01 08:10:06;;;;;;;12.73;4.30;;;10.60;62.30;;;;;;4964757;28;20066;-58
2024/01/01 08:12:34;;;;;;;11.18;3.20;;;10.70;62.00;;;;;;4983417;28;20054;-56
2024/01/01 08:15:03;;;;;;;18.85;5.70;;;10.70;61.60;;;;;;4990236;28;20183;-58
2024/01/01 08:17:31;;;;;;;17.98;4.75;;;10.70;61.70;;;;;;4988793;28;20797;-58
2024/01/01 08:19:59;;;;;;;10.85;3.72;;;10.80;61.90;;;;;;4966793;28;20064;-56
2024/01/01 08:22:28;;;;;;;14.32;4.65;;;10.90;62.00;;;;;;4979984;28;20058;-58
2024/01/01 08:24:56;;;;;;;12.48;3.63;;;11.00;61.80;;;;;;4980300;28;20058;-57
2024/01/01 08:27:25;;;;;;;12.30;4.57;;;11.00;61.40;;;;;;4977298;28;20046;-57
2024/01/01 08:29:54;;;;;;;17.05;3.63;;;10.90;61.30;;;;;;4968859;28;20058;-56
2024/01/01 08:32:22;;;;;;;11.27;4.38;;;10.90;61.40;;;;;;4973400;28;20062;-56
2024/01/01 08:34:50;;;;;;;10.30;3.90;;;10.90;61.40;;;;;;4977767;28;20061;-56
2024/01/01 08:37:19;;;;;;;7.82;3.67;;;10.90;61.00;;;;;;4974887;28;20065;-58
2024/01/01 08:39:47;;;;;;;10.50;3.65;;;10.70;60.90;;;;;;4976862;28;20058;-56
2024/01/01 08:42:15;;;;;;;7.22;3.42;;;10.60;61.10;;;;;;4980297;28;20061;-57
2024/01/01 08:44:45;;;;;;;10.25;4.47;;;10.70;61.50;;;;;;4976303;28;20072;-59
2024/01/01 08:47:15;;;;;;;8.90;3.45;;;10.80;61.70;;;;;;4978360;28;20513;-55
2024/01/01 08:49:45;;;;;;;6.57;2.30;;;10.90;61.50;;;;;;4975538;28;20057;-57
2024/01/01 08:52:13;;;;;;;5.50;2.20;;;11.00;61.30;;;;;;4982298;28;20062;-57
2024/01/01 08:54:41;;;;;;;10.27;3.15;;;11.10;61.20;;;;;;4977128;28;20066;-57
2024/01/01 08:57:09;;;;;;;9.18;2.85;;;11.10;61.00;;;;;;4979005;28;20059;-57
2024/01/01 08:59:40;;;;;;;9.52;3.15;;;11.10;60.80;;;;;;4973995;28;20061;-57
2024/01/01 09:02:10;;;;;;;12.13;5.00;;;10.90;60.10;;;;;;4969227;28;20703;-57
2024/01/01 09:04:39;;;;;;;8.98;3.67;;;10.70;60.50;;;;;;4975745;28;20132;-58
2024/01/01 09:07:07;;;;;;;10.65;4.57;;;10.70;61.00;;;;;;4978871;28;20062;-58
2024/01/01 09:09:37;;;;;;;8.90;3.63;;;10.90;61.30;;;;;;4976569;28;20066;-54
2024/01/01 09:12:06;;;;;;;12.73;3.90;;;11.00;61.10;;;;;;4970236;28;20058;-55
2024/01/01 09:14:35;;;;;;;8.10;3.33;;;11.20;61.20;;;;;;4981028;28;20081;-57
2024/01/01 09:17:07;;;;;;;5.32;2.80;;;11.30;60.80;;;;;;4974886;28;20066;-57
2024/01/01 09:19:37;;;;;;;6.10;3.05;;;11.30;60.30;;;;;;4976388;28;20128;-57
2024/01/01 09:22:08;;;;;;;9.98;4.30;;;11.20;60.30;;;;;;4970028;28;20073;-57
2024/01/01 09:24:36;;;;;;;10.05;3.70;;;11.30;60.50;;;;;;4985248;28;20054;-57
2024/01/01 09:27:05;;;;;;;12.13;4.30;;;11.20;61.20;;;;;;4987092;28;20054;-58
2024/01/01 09:29:34;;;;;;;10.88;3.92;;;11.20;60.20;;;;;;4977634;28;20062;-58
2024/01/01 09:32:03;;;;;;;13.25;3.78;;;11.10;60.20;;;;;;4970703;28;20058;-57
2024/01/01 09:34:31;;;;;;;11.38;3.80;;;11.10;60.30;;;;;;4984789;28;20552;-57
2024/01/01 09:37:01;;;;;;;8.90;3.55;;;11.00;60.40;;;;;;4982861;28;20135;-58
2024/01/01 09:39:31;;;;;;;9.45;3.10;;;11.00;60.50;;;;;;4979090;28;20074;-58
2024/01/01 09:42:04;;;;;;;11.68;4.05;;;11.00;60.60;;;;;;4968844;28;20078;-57
2024/01/01 09:44:33;;;;;;;11.20;4.00;;;11.00;60.80;;;;;;4972976;28;20117;-56
2024/01/01 09:47:02;;;;;;;11.98;4.10;;;11.20;61.00;;;;;;4978995;28;20062;-57
2024/01/01 09:49:31;;;;;;;11.75;4.13;;;11.30;61.10;;;;;;4980803;28;20086;-56
2024/01/01 09:52:04;;;;;;;10.60;4.10;;;11.70;61.20;;;;;;4976385;28;20062;-56
2024/01/01 09:54:33;;;;;;;13.07;4.55;;;12.00;60.80;;;;;;4983283;28;20070;-57
2024/01/01 09:57:01;;;;;;;9.85;4.97;;;12.30;60.10;;;;;;4975916;28;20084;-57
2024/01/01 09:59:36;;;;;;;9.30;4.32;;;12.50;59.50;;;;;;4980075;28;20113;-57
2024/01/01 10:02:06;;;;;;;9.75;3.75;;;12.50;59.20;;;;;;4973051;28;20061;-58
2024/01/01 10:04:35;;;;;;;7.93;4.53;;;12.70;59.40;;;;;;4985780;28;20054;-57
2024/01/01 10:07:05;;;;;;;13.85;4.10;;;12.80;59.20;;;;;;4975314;28;20070;-57
2024/01/01 10:09:38;;;;;;;13.55;4.32;;;13.10;59.20;;;;;;4979636;28;20058;-59
2024/01/01 10:12:09;;;;;;;8.50;3.85;;;13.40;59.00;;;;;;4969321;28;20125;-57
2024/01/01 10:14:46;;;;;;;8.70;3.47;;;14.00;59.20;;;;;;4984034;28;20058;-58
2024/01/01 10:17:17;;;;;;;6.22;2.80;;;14.80;58.70;;;;;;4974770;28;20046;-57
2024/01/01 10:19:51;;;;;;;7.78;2.97;;;15.70;58.00;;;;;;4979140;28;20054;-59
2024/01/01 10:22:23;;;;;;;8.80;3.67;;;16.50;56.90;;;;;;4976082;28;20062;-56
2024/01/01 10:24:53;;;;;;;14.35;3.78;;;16.90;55.70;;;;;;4982643;28;20058;-57
2024/01/01 10:27:22;;;;;;;9.63;3.95;;;17.30;55.50;;;;;;4984326;28;20528;-58
2024/01/01 10:29:51;;;;;;;11.80;4.35;;;17.60;55.20;;;;;;4977361;28;20141;-52
2024/01/01 10:32:20;;;;;;;10.60;3.65;;;18.00;54.70;;;;;;4975209;28;20062;-56
2024/01/01 10:34:49;;;;;;;11.02;4.53;;;18.30;54.50;;;;;;4977004;28;20439;-57
2024/01/01 10:37:19;;;;;;;13.20;5.53;;;18.70;53.90;;;;;;4980169;28;20054;-57
2024/01/01 10:39:51;;;;;;;7.57;3.30;;;18.80;53.50;;;;;;4977894;28;20062;-57
2024/01/01 10:42:21;;;;;;;7.60;2.88;;;18.90;53.00;;;;;;4978526;28;20081;-55
2024/01/01 10:44:49;;;;;;;7.45;3.30;;;18.80;52.60;;;;;;4976614;28;20054;-58
2024/01/01 10:47:20;;;;;;;12.27;4.30;;;18.60;52.60;;;;;;4980956;28;20054;-57
2024/01/01 10:49:55;;;;;;;9.02;3.60;;;18.20;52.70;;;;;;4976312;28;20758;-54
2024/01/01 10:52:52;;;;;;;5.28;2.53;;;18.00;53.20;;;;;;4978353;28;21614;-57
2024/01/01 10:55:42;;;;;;;6.75;3.17;;;17.90;53.00;;;;;;4974208;28;20112;-57
2024/01/01 10:58:22;;;;;;;11.85;2.92;;;17.70;52.90;;;;;;4966362;28;20062;-61
2024/01/01 11:01:04;;;;;;;8.80;3.05;;;17.40;53.00;;;;;;4983142;28;20062;-55
2024/01/01 11:03:34;;;;;;;9.13;3.13;;;17.30;53.40;;;;;;4980273;28;20141;-57
2024/01/01 11:06:24;;;;;;;6.63;3.00;;;17.10;53.40;;;;;;4973007;28;21276;-57
2024/01/01 11:08:53;;;;;;;12.60;2.92;;;16.80;53.30;;;;;;4981214;28;20073;-56
2024/01/01 11:11:25;;;;;;;4.82;2.72;;;16.40;54.20;;;;;;4980480;28;20085;-56
2024/01/01 11:13:55;;;;;;;4.55;3.03;;;16.10;54.20;;;;;;4971359;28;20396;-56
2024/01/01 11:16:24;;;;;;;7.63;3.75;;;15.90;54.50;;;;;;4973629;28;20059;-58
2024/01/01 11:18:53;;;;;;;5.85;2.42;;;15.80;54.70;;;;;;4969190;28;20650;-57
2024/01/01 11:21:28;;;;;;;8.57;2.80;;;15.70;54.60;;;;;;4976081;28;20116;-57
2024/01/01 11:24:01;;;;;;;7.45;3.45;;;15.60;54.80;;;;;;4971899;28;20046;-55
2024/01/01 11:26:50;;;;;;;7.13;2.58;;;15.50;55.10;;;;;;4977512;28;20054;-58
2024/01/01 11:29:28;;;;;;;10.88;3.47;;;15.40;55.20;;;;;;4977327;28;20065;-57
2024/01/01 11:32:03;;;;;;;9.95;3.85;;;15.30;55.40;;;;;;4970079;28;20141;-57
2024/01/01 11:34:31;;;;;;;7.43;3.40;;;15.10;55.50;;;;;;4975665;28;20684;-57
2024/01/01 11:37:20;;;;;;;25.75;9.77;;;15.00;55.70;;;;;;4983075;28;20424;-57
2024/01/01 11:39:58;;;;;;;15.73;5.07;;;14.90;55.80;;;;;;4972622;28;20101;-58
2024/01/01 11:42:28;;;;;;;16.83;4.88;;;14.90;55.90;;;;;;4970488;28;20725;-59
2024/01/01 11:45:07;;;;;;;7.75;2.50;;;15.00;56.10;;;;;;4974679;28;20069;-58
2024/01/01 11:47:36;;;;;;;12.35;3.20;;;15.10;56.10;;;;;;4975974;28;20054;-58
2024/01/01 11:50:06;;;;;;;6.40;2.97;;;15.20;55.90;;;;;;4970465;28;20508;-59
2024/01/01 11:52:35;;;;;;;7.53;3.00;;;15.20;55.80;;;;;;4978518;28;20050;-58
2024/01/01 11:55:03;;;;;;;16.65;3.08;;;15.20;55.60;;;;;;4987047;28;20054;-58
2024/01/01 11:57:34;;;;;;;4.57;2.05;;;15.20;55.60;;;;;;5009985;28;20137;-57
2024/01/01 12:00:03;;;;;;;7.93;2.58;;;15.10;55.30;;;;;;5000284;28;20839;-60
2024/01/01 12:02:36;;;;;;;6.68;2.65;;;14.90;55.20;;;;;;4973508;28;20050;-63
2024/01/01 12:05:05;;;;;;;4.57;2.35;;;14.70;55.30;;;;;;4977580;28;20132;-58
2024/01/01 12:07:35;;;;;;;6.40;2.53;;;14.60;55.40;;;;;;4976419;28;20061;-58
2024/01/01 12:10:07;;;;;;;10.30;2.92;;;14.50;55.60;;;;;;4970331;28;20238;-58
2024/01/01 12:12:38;;;;;;;7.20;2.97;;;14.50;55.80;;;;;;4983607;28;20462;-59
2024/01/01 12:15:12;;;;;;;6.80;2.67;;;14.50;55.70;;;;;;4975096;28;20069;-60
2024/01/01 12:17:41;;;;;;;8.02;2.85;;;14.50;55.70;;;;;;4986334;28;20534;-59
2024/01/01 12:20:11;;;;;;;10.43;3.10;;;14.60;55.70;;;;;;4971836;28;20081;-59
2024/01/01 12:22:40;;;;;;;10.40;2.97;;;14.60;55.60;;;;;;4977582;28;20576;-58
2024/01/01 12:25:15;;;;;;;7.43;2.65;;;14.50;55.60;;;;;;4979930;28;20386;-59
2024/01/01 12:28:02;;;;;;;4.78;2.28;;;14.50;56.10;;;;;;4974888;28;20050;-59
2024/01/01 12:30:31;;;;;;;11.65;3.88;;;14.40;56.10;;;;;;4978581;28;20054;-58
2024/01/01 12:32:59;;;;;;;16.65;3.85;;;14.40;55.50;;;;;;4976872;28;20062;-59
2024/01/01 12:35:27;;;;;;;9.68;2.95;;;14.30;55.50;;;;;;4971728;28;20180;-58
2024/01/01 12:37:56;;;;;;;9.32;2.67;;;14.30;55.60;;;;;;4971801;28;20050;-58
2024/01/01 12:40:28;;;;;;;5.28;2.25;;;14.30;55.50;;;;;;4977439;28;20145;-58
2024/01/01 12:42:58;;;;;;;6.60;2.60;;;14.40;55.70;;;;;;4982198;28;20785;-59
2024/01/01 12:45:27;;;;;;;6.82;2.90;;;14.40;55.60;;;;;;4978076;28;20052;-57
2024/01/01 12:47:59;;;;;;;19.33;3.40;;;14.50;55.40;;;;;;4968780;28;20137;-59
2024/01/01 12:50:27;;;;;;;17.52;3.55;;;14.50;55.30;;;;;;4975491;28;20058;-57
2024/01/01 12:52:57;;;;;;;7.57;3.03;;;14.50;55.20;;;;;;4998533;28;20061;-59
2024/01/01 12:55:25;;;;;;;17.27;3.80;;;14.50;55.30;;;;;;4982655;28;20054;-59
2024/01/01 12:57:54;;;;;;;11.07;3.85;;;14.50;55.20;;;;;;4964421;28;20066;-58